sensor_id;sensor_type;location;lat;lon;timestamp;P1;durP1;ratioP1;P2;durP2;ratioP2
45686;SDS011;31399;51.176;7.776;2023-09-08T00:02:12;7.10;;;3.10;;
45686;SDS011;31399;51.176;7.776;2023-09-08T00:04:38;3.70;;;3.10;;
45686;SDS011;31399;51.176;7.776;2023-09-08T00:07:05;5.60;;;3.20;;
45686;SDS011;31399;51.176;7.776;2023-09-08T00:09:32;5.43;;;2.75;;
45686;SDS011;31399;51.176;7.776;2023-09-08T00:11:58;8.35;;;3.80;;
45686;SDS011;31399;51.176;7.776;2023-09-08T00:14:25;4.13;;;2.78;;
45686;SDS011;31399;51.176;7.776;2023-09-08T00:16:52;4.97;;;3.15;;
45686;SDS011;31399;51.176;7.776;2023-09-08T00:19:21;8.02;;;3.08;;
45686;SDS011;31399;51.176;7.776;2023-09-08T00:21:49;6.63;;;3.28;;
45686;SDS011;31399;51.176;7.776;2023-09-08T00:24:16;3.83;;;3.03;;
45686;SDS011;31399;51.176;7.776;2023-09-08T00:26:44;4.43;;;2.90;;
45686;SDS011;31399;51.176;7.776;2023-09-08T00:29:10;4.57;;;3.03;;
45686;SDS011;31399;51.176;7.776;2023-09-08T00:31:37;5.85;;;3.53;;
45686;SDS011;31399;51.176;7.776;2023-09-08T00:34:04;4.45;;;3.15;;
45686;SDS011;31399;51.176;7.776;2023-09-08T00:36:33;10.07;;;3.80;;
45686;SDS011;31399;51.176;7.776;2023-09-08T00:38:59;4.15;;;2.83;;
45686;SDS011;31399;51.176;7.776;2023-09-08T00:41:26;5.68;;;2.97;;
45686;SDS011;31399;51.176;7.776;2023-09-08T00:43:53;6.05;;;3.33;;
45686;SDS011;31399;51.176;7.776;2023-09-08T00:46:19;5.68;;;3.40;;
45686;SDS011;31399;51.176;7.776;2023-09-08T00:48:46;4.78;;;3.15;;
45686;SDS011;31399;51.176;7.776;2023-09-08T00:51:12;6.38;;;3.88;;
45686;SDS011;31399;51.176;7.776;2023-09-08T00:53:39;3.50;;;2.88;;
45686;SDS011;31399;51.176;7.776;2023-09-08T00:56:06;3.25;;;2.72;;
45686;SDS011;31399;51.176;7.776;2023-09-08T00:58:33;4.93;;;3.50;;
45686;SDS011;31399;51.176;7.776;2023-09-08T01:01:00;5.20;;;4.32;;
45686;SDS011;31399;51.176;7.776;2023-09-08T01:03:27;4.15;;;3.28;;
45686;SDS011;31399;51.176;7.776;2023-09-08T01:05:54;6.53;;;2.92;;
45686;SDS011;31399;51.176;7.776;2023-09-08T01:08:21;5.00;;;3.65;;
45686;SDS011;31399;51.176;7.776;2023-09-08T01:10:47;5.57;;;3.83;;
45686;SDS011;31399;51.176;7.776;2023-09-08T01:13:14;5.30;;;3.75;;
45686;SDS011;31399;51.176;7.776;2023-09-08T01:15:40;5.60;;;3.28;;
45686;SDS011;31399;51.176;7.776;2023-09-08T01:18:07;4.38;;;3.30;;
45686;SDS011;31399;51.176;7.776;2023-09-08T01:20:48;5.75;;;3.60;;
45686;SDS011;31399;51.176;7.776;2023-09-08T01:23:24;6.30;;;3.30;;
45686;SDS011;31399;51.176;7.776;2023-09-08T01:26:16;4.85;;;3.10;;
45686;SDS011;31399;51.176;7.776;2023-09-08T01:28:44;7.07;;;3.50;;
45686;SDS011;31399;51.176;7.776;2023-09-08T01:31:11;6.20;;;3.33;;
45686;SDS011;31399;51.176;7.776;2023-09-08T01:33:39;6.60;;;3.00;;
45686;SDS011;31399;51.176;7.776;2023-09-08T01:36:06;6.53;;;3.30;;
45686;SDS011;31399;51.176;7.776;2023-09-08T01:38:34;5.80;;;3.50;;
45686;SDS011;31399;51.176;7.776;2023-09-08T01:41:01;4.35;;;3.10;;
45686;SDS011;31399;51.176;7.776;2023-09-08T01:43:28;6.35;;;3.35;;
45686;SDS011;31399;51.176;7.776;2023-09-08T01:45:54;6.75;;;3.30;;
45686;SDS011;31399;51.176;7.776;2023-09-08T01:48:21;4.68;;;2.95;;
45686;SDS011;31399;51.176;7.776;2023-09-08T01:50:47;3.50;;;2.92;;
45686;SDS011;31399;51.176;7.776;2023-09-08T01:53:14;4.35;;;3.30;;
45686;SDS011;31399;51.176;7.776;2023-09-08T01:55:41;4.15;;;3.40;;
45686;SDS011;31399;51.176;7.776;2023-09-08T01:58:07;4.88;;;3.33;;
45686;SDS011;31399;51.176;7.776;2023-09-08T02:00:34;6.50;;;3.20;;
45686;SDS011;31399;51.176;7.776;2023-09-08T02:03:00;5.30;;;3.30;;
45686;SDS011;31399;51.176;7.776;2023-09-08T02:05:27;5.55;;;3.47;;
45686;SDS011;31399;51.176;7.776;2023-09-08T02:07:54;7.85;;;3.30;;
45686;SDS011;31399;51.176;7.776;2023-09-08T02:10:22;6.15;;;3.83;;
45686;SDS011;31399;51.176;7.776;2023-09-08T02:12:48;7.22;;;3.50;;
45686;SDS011;31399;51.176;7.776;2023-09-08T02:15:15;4.93;;;3.28;;
45686;SDS011;31399;51.176;7.776;2023-09-08T02:17:43;5.25;;;3.30;;
45686;SDS011;31399;51.176;7.776;2023-09-08T02:20:10;4.78;;;3.10;;
45686;SDS011;31399;51.176;7.776;2023-09-08T02:22:37;5.65;;;3.10;;
45686;SDS011;31399;51.176;7.776;2023-09-08T02:25:04;6.43;;;3.03;;
45686;SDS011;31399;51.176;7.776;2023-09-08T02:27:31;4.10;;;3.00;;
45686;SDS011;31399;51.176;7.776;2023-09-08T02:29:57;5.43;;;3.70;;
45686;SDS011;31399;51.176;7.776;2023-09-08T02:32:24;11.48;;;3.85;;
45686;SDS011;31399;51.176;7.776;2023-09-08T02:34:50;4.95;;;3.20;;
45686;SDS011;31399;51.176;7.776;2023-09-08T02:37:19;6.88;;;3.08;;
45686;SDS011;31399;51.176;7.776;2023-09-08T02:39:45;3.97;;;2.78;;
45686;SDS011;31399;51.176;7.776;2023-09-08T02:42:12;4.05;;;2.75;;
45686;SDS011;31399;51.176;7.776;2023-09-08T02:44:38;3.88;;;2.70;;
45686;SDS011;31399;51.176;7.776;2023-09-08T02:47:05;4.75;;;3.25;;
45686;SDS011;31399;51.176;7.776;2023-09-08T02:49:32;3.70;;;2.78;;
45686;SDS011;31399;51.176;7.776;2023-09-08T02:51:59;6.40;;;3.35;;
45686;SDS011;31399;51.176;7.776;2023-09-08T02:54:26;3.70;;;2.85;;
45686;SDS011;31399;51.176;7.776;2023-09-08T02:56:52;4.93;;;3.35;;
45686;SDS011;31399;51.176;7.776;2023-09-08T02:59:19;7.07;;;3.20;;
45686;SDS011;31399;51.176;7.776;2023-09-08T03:01:46;5.80;;;3.13;;
45686;SDS011;31399;51.176;7.776;2023-09-08T03:04:12;6.45;;;3.53;;
45686;SDS011;31399;51.176;7.776;2023-09-08T03:06:39;5.00;;;2.83;;
45686;SDS011;31399;51.176;7.776;2023-09-08T03:09:05;6.78;;;3.45;;
45686;SDS011;31399;51.176;7.776;2023-09-08T03:11:32;7.22;;;2.95;;
45686;SDS011;31399;51.176;7.776;2023-09-08T03:13:59;5.88;;;3.30;;
45686;SDS011;31399;51.176;7.776;2023-09-08T03:16:26;6.05;;;2.97;;
45686;SDS011;31399;51.176;7.776;2023-09-08T03:18:52;4.53;;;3.05;;
45686;SDS011;31399;51.176;7.776;2023-09-08T03:21:19;4.95;;;3.65;;
45686;SDS011;31399;51.176;7.776;2023-09-08T03:23:45;6.93;;;3.10;;
45686;SDS011;31399;51.176;7.776;2023-09-08T03:26:12;5.13;;;2.78;;
45686;SDS011;31399;51.176;7.776;2023-09-08T03:28:39;4.18;;;3.20;;
45686;SDS011;31399;51.176;7.776;2023-09-08T03:31:08;6.60;;;3.10;;
45686;SDS011;31399;51.176;7.776;2023-09-08T03:33:34;5.47;;;2.97;;
45686;SDS011;31399;51.176;7.776;2023-09-08T03:36:01;4.30;;;2.83;;
45686;SDS011;31399;51.176;7.776;2023-09-08T03:38:28;3.97;;;3.03;;
45686;SDS011;31399;51.176;7.776;2023-09-08T03:40:55;7.45;;;3.38;;
45686;SDS011;31399;51.176;7.776;2023-09-08T03:43:21;6.05;;;3.15;;
45686;SDS011;31399;51.176;7.776;2023-09-08T03:45:48;3.83;;;2.55;;
45686;SDS011;31399;51.176;7.776;2023-09-08T03:48:15;5.20;;;3.00;;
45686;SDS011;31399;51.176;7.776;2023-09-08T03:50:42;4.03;;;3.22;;
45686;SDS011;31399;51.176;7.776;2023-09-08T03:53:11;7.47;;;3.50;;
45686;SDS011;31399;51.176;7.776;2023-09-08T03:55:38;8.15;;;3.03;;
45686;SDS011;31399;51.176;7.776;2023-09-08T03:58:05;8.57;;;2.85;;
45686;SDS011;31399;51.176;7.776;2023-09-08T04:00:31;4.20;;;2.95;;
45686;SDS011;31399;51.176;7.776;2023-09-08T04:02:58;4.57;;;3.08;;
45686;SDS011;31399;51.176;7.776;2023-09-08T04:05:25;4.85;;;3.15;;
45686;SDS011;31399;51.176;7.776;2023-09-08T04:07:51;10.00;;;3.40;;
45686;SDS011;31399;51.176;7.776;2023-09-08T04:10:18;5.95;;;3.03;;
45686;SDS011;31399;51.176;7.776;2023-09-08T04:12:44;3.42;;;3.00;;
45686;SDS011;31399;51.176;7.776;2023-09-08T04:15:11;4.93;;;3.35;;
45686;SDS011;31399;51.176;7.776;2023-09-08T04:17:38;6.68;;;3.42;;
45686;SDS011;31399;51.176;7.776;2023-09-08T04:20:05;8.40;;;3.30;;
45686;SDS011;31399;51.176;7.776;2023-09-08T04:22:32;5.68;;;3.35;;
45686;SDS011;31399;51.176;7.776;2023-09-08T04:24:59;4.85;;;2.88;;
45686;SDS011;31399;51.176;7.776;2023-09-08T04:27:27;6.35;;;2.90;;
45686;SDS011;31399;51.176;7.776;2023-09-08T04:29:53;4.35;;;2.70;;
45686;SDS011;31399;51.176;7.776;2023-09-08T04:32:20;8.98;;;3.92;;
45686;SDS011;31399;51.176;7.776;2023-09-08T04:34:47;4.65;;;2.95;;
45686;SDS011;31399;51.176;7.776;2023-09-08T04:37:15;11.45;;;3.50;;
45686;SDS011;31399;51.176;7.776;2023-09-08T04:39:43;4.88;;;3.30;;
45686;SDS011;31399;51.176;7.776;2023-09-08T04:42:10;4.15;;;3.38;;
45686;SDS011;31399;51.176;7.776;2023-09-08T04:44:37;3.78;;;2.83;;
45686;SDS011;31399;51.176;7.776;2023-09-08T04:47:04;4.50;;;3.53;;
45686;SDS011;31399;51.176;7.776;2023-09-08T04:49:31;5.57;;;3.35;;
45686;SDS011;31399;51.176;7.776;2023-09-08T04:51:57;4.63;;;3.40;;
45686;SDS011;31399;51.176;7.776;2023-09-08T04:54:24;5.03;;;3.50;;
45686;SDS011;31399;51.176;7.776;2023-09-08T04:56:53;3.95;;;3.35;;
45686;SDS011;31399;51.176;7.776;2023-09-08T04:59:33;5.55;;;3.10;;
45686;SDS011;31399;51.176;7.776;2023-09-08T05:01:59;3.88;;;3.03;;
45686;SDS011;31399;51.176;7.776;2023-09-08T05:04:26;5.53;;;3.28;;
45686;SDS011;31399;51.176;7.776;2023-09-08T05:06:52;4.35;;;3.15;;
45686;SDS011;31399;51.176;7.776;2023-09-08T05:09:19;4.90;;;2.97;;
45686;SDS011;31399;51.176;7.776;2023-09-08T05:11:46;5.25;;;3.35;;
45686;SDS011;31399;51.176;7.776;2023-09-08T05:14:12;11.93;;;3.53;;
45686;SDS011;31399;51.176;7.776;2023-09-08T05:16:39;7.00;;;3.03;;
45686;SDS011;31399;51.176;7.776;2023-09-08T05:19:12;3.85;;;3.38;;
45686;SDS011;31399;51.176;7.776;2023-09-08T05:21:39;3.78;;;2.92;;
45686;SDS011;31399;51.176;7.776;2023-09-08T05:24:09;4.72;;;3.28;;
45686;SDS011;31399;51.176;7.776;2023-09-08T05:26:37;5.50;;;3.10;;
45686;SDS011;31399;51.176;7.776;2023-09-08T05:29:05;8.38;;;3.60;;
45686;SDS011;31399;51.176;7.776;2023-09-08T05:31:32;7.82;;;3.25;;
45686;SDS011;31399;51.176;7.776;2023-09-08T05:33:58;6.07;;;2.92;;
45686;SDS011;31399;51.176;7.776;2023-09-08T05:36:25;9.95;;;3.22;;
45686;SDS011;31399;51.176;7.776;2023-09-08T05:38:52;4.88;;;3.40;;
45686;SDS011;31399;51.176;7.776;2023-09-08T05:41:18;4.57;;;3.30;;
45686;SDS011;31399;51.176;7.776;2023-09-08T05:43:45;4.40;;;3.50;;
45686;SDS011;31399;51.176;7.776;2023-09-08T05:46:12;3.67;;;2.90;;
45686;SDS011;31399;51.176;7.776;2023-09-08T05:48:39;5.80;;;3.20;;
45686;SDS011;31399;51.176;7.776;2023-09-08T05:51:06;5.50;;;3.30;;
45686;SDS011;31399;51.176;7.776;2023-09-08T05:53:33;5.32;;;3.40;;
45686;SDS011;31399;51.176;7.776;2023-09-08T05:56:01;7.03;;;3.60;;
45686;SDS011;31399;51.176;7.776;2023-09-08T05:58:28;6.05;;;3.10;;
45686;SDS011;31399;51.176;7.776;2023-09-08T06:00:55;4.95;;;3.15;;
45686;SDS011;31399;51.176;7.776;2023-09-08T06:03:22;3.70;;;3.03;;
45686;SDS011;31399;51.176;7.776;2023-09-08T06:05:49;4.50;;;2.53;;
45686;SDS011;31399;51.176;7.776;2023-09-08T06:08:15;3.80;;;2.90;;
45686;SDS011;31399;51.176;7.776;2023-09-08T06:10:42;8.23;;;3.40;;
45686;SDS011;31399;51.176;7.776;2023-09-08T06:13:09;3.53;;;2.45;;
45686;SDS011;31399;51.176;7.776;2023-09-08T06:15:36;5.75;;;3.53;;
45686;SDS011;31399;51.176;7.776;2023-09-08T06:18:03;6.72;;;3.40;;
45686;SDS011;31399;51.176;7.776;2023-09-08T06:20:30;10.75;;;3.88;;
45686;SDS011;31399;51.176;7.776;2023-09-08T06:22:57;4.20;;;3.08;;
45686;SDS011;31399;51.176;7.776;2023-09-08T06:25:24;3.75;;;3.08;;
45686;SDS011;31399;51.176;7.776;2023-09-08T06:27:50;6.10;;;3.25;;
45686;SDS011;31399;51.176;7.776;2023-09-08T06:30:17;6.80;;;3.20;;
45686;SDS011;31399;51.176;7.776;2023-09-08T06:32:44;6.85;;;3.55;;
45686;SDS011;31399;51.176;7.776;2023-09-08T06:35:11;6.50;;;3.63;;
45686;SDS011;31399;51.176;7.776;2023-09-08T06:37:38;6.07;;;2.83;;
45686;SDS011;31399;51.176;7.776;2023-09-08T06:40:05;7.05;;;3.17;;
45686;SDS011;31399;51.176;7.776;2023-09-08T06:42:32;3.75;;;2.45;;
45686;SDS011;31399;51.176;7.776;2023-09-08T06:44:59;5.65;;;3.00;;
45686;SDS011;31399;51.176;7.776;2023-09-08T06:47:26;5.85;;;3.63;;
45686;SDS011;31399;51.176;7.776;2023-09-08T06:49:53;4.55;;;3.42;;
45686;SDS011;31399;51.176;7.776;2023-09-08T06:52:19;7.65;;;2.95;;
45686;SDS011;31399;51.176;7.776;2023-09-08T06:54:46;7.68;;;3.40;;
45686;SDS011;31399;51.176;7.776;2023-09-08T06:57:13;10.40;;;3.50;;
45686;SDS011;31399;51.176;7.776;2023-09-08T06:59:40;10.60;;;3.03;;
45686;SDS011;31399;51.176;7.776;2023-09-08T07:02:07;10.57;;;3.40;;
45686;SDS011;31399;51.176;7.776;2023-09-08T07:04:34;6.43;;;3.30;;
45686;SDS011;31399;51.176;7.776;2023-09-08T07:07:01;6.68;;;3.22;;
45686;SDS011;31399;51.176;7.776;2023-09-08T07:09:36;3.88;;;2.90;;
45686;SDS011;31399;51.176;7.776;2023-09-08T07:12:03;3.67;;;3.05;;
45686;SDS011;31399;51.176;7.776;2023-09-08T07:14:31;5.78;;;3.17;;
45686;SDS011;31399;51.176;7.776;2023-09-08T07:16:58;4.15;;;2.50;;
45686;SDS011;31399;51.176;7.776;2023-09-08T07:19:25;3.85;;;2.72;;
45686;SDS011;31399;51.176;7.776;2023-09-08T07:21:53;8.10;;;2.95;;
45686;SDS011;31399;51.176;7.776;2023-09-08T07:24:20;5.18;;;2.55;;
45686;SDS011;31399;51.176;7.776;2023-09-08T07:26:46;3.13;;;2.72;;
45686;SDS011;31399;51.176;7.776;2023-09-08T07:29:13;3.88;;;2.70;;
45686;SDS011;31399;51.176;7.776;2023-09-08T07:31:40;4.20;;;2.80;;
45686;SDS011;31399;51.176;7.776;2023-09-08T07:34:07;2.83;;;2.35;;
45686;SDS011;31399;51.176;7.776;2023-09-08T07:36:34;3.45;;;2.40;;
45686;SDS011;31399;51.176;7.776;2023-09-08T07:39:01;3.67;;;2.72;;
45686;SDS011;31399;51.176;7.776;2023-09-08T07:41:28;4.95;;;2.78;;
45686;SDS011;31399;51.176;7.776;2023-09-08T07:43:55;4.30;;;2.72;;
45686;SDS011;31399;51.176;7.776;2023-09-08T07:46:21;6.07;;;2.88;;
45686;SDS011;31399;51.176;7.776;2023-09-08T07:48:49;3.85;;;2.42;;
45686;SDS011;31399;51.176;7.776;2023-09-08T07:51:16;6.75;;;3.13;;
45686;SDS011;31399;51.176;7.776;2023-09-08T07:53:42;3.35;;;2.80;;
45686;SDS011;31399;51.176;7.776;2023-09-08T07:56:09;3.67;;;2.72;;
45686;SDS011;31399;51.176;7.776;2023-09-08T07:58:36;5.43;;;2.85;;
45686;SDS011;31399;51.176;7.776;2023-09-08T08:01:03;3.92;;;2.53;;
45686;SDS011;31399;51.176;7.776;2023-09-08T08:03:30;7.22;;;3.00;;
45686;SDS011;31399;51.176;7.776;2023-09-08T08:05:56;4.78;;;2.65;;
45686;SDS011;31399;51.176;7.776;2023-09-08T08:08:24;4.97;;;2.38;;
45686;SDS011;31399;51.176;7.776;2023-09-08T08:10:51;4.55;;;2.13;;
45686;SDS011;31399;51.176;7.776;2023-09-08T08:13:17;4.32;;;2.45;;
45686;SDS011;31399;51.176;7.776;2023-09-08T08:15:44;3.72;;;2.70;;
45686;SDS011;31399;51.176;7.776;2023-09-08T08:18:13;3.15;;;2.55;;
45686;SDS011;31399;51.176;7.776;2023-09-08T08:20:40;4.68;;;2.60;;
45686;SDS011;31399;51.176;7.776;2023-09-08T08:23:07;4.65;;;2.80;;
45686;SDS011;31399;51.176;7.776;2023-09-08T08:25:34;4.72;;;2.22;;
45686;SDS011;31399;51.176;7.776;2023-09-08T08:28:01;5.38;;;3.05;;
45686;SDS011;31399;51.176;7.776;2023-09-08T08:30:27;3.40;;;2.58;;
45686;SDS011;31399;51.176;7.776;2023-09-08T08:32:55;3.53;;;2.70;;
45686;SDS011;31399;51.176;7.776;2023-09-08T08:35:21;7.63;;;2.35;;
45686;SDS011;31399;51.176;7.776;2023-09-08T08:37:48;4.53;;;2.70;;
45686;SDS011;31399;51.176;7.776;2023-09-08T08:40:15;4.88;;;2.50;;
45686;SDS011;31399;51.176;7.776;2023-09-08T08:42:41;4.28;;;2.70;;
45686;SDS011;31399;51.176;7.776;2023-09-08T08:45:08;4.38;;;2.55;;
45686;SDS011;31399;51.176;7.776;2023-09-08T08:47:35;2.67;;;2.05;;
45686;SDS011;31399;51.176;7.776;2023-09-08T08:50:02;2.78;;;2.17;;
45686;SDS011;31399;51.176;7.776;2023-09-08T08:52:30;4.88;;;2.50;;
45686;SDS011;31399;51.176;7.776;2023-09-08T08:54:57;3.08;;;2.65;;
45686;SDS011;31399;51.176;7.776;2023-09-08T08:57:26;4.07;;;2.40;;
45686;SDS011;31399;51.176;7.776;2023-09-08T08:59:54;5.93;;;2.80;;
45686;SDS011;31399;51.176;7.776;2023-09-08T09:02:21;5.82;;;2.90;;
45686;SDS011;31399;51.176;7.776;2023-09-08T09:04:47;9.10;;;2.97;;
45686;SDS011;31399;51.176;7.776;2023-09-08T09:07:14;6.50;;;2.55;;
45686;SDS011;31399;51.176;7.776;2023-09-08T09:09:41;4.45;;;2.60;;
45686;SDS011;31399;51.176;7.776;2023-09-08T09:12:08;8.82;;;2.75;;
45686;SDS011;31399;51.176;7.776;2023-09-08T09:14:35;7.10;;;3.40;;
45686;SDS011;31399;51.176;7.776;2023-09-08T09:17:01;3.25;;;2.75;;
45686;SDS011;31399;51.176;7.776;2023-09-08T09:19:30;5.28;;;2.42;;
45686;SDS011;31399;51.176;7.776;2023-09-08T09:21:58;4.20;;;2.90;;
45686;SDS011;31399;51.176;7.776;2023-09-08T09:27:07;4.20;;;2.65;;
45686;SDS011;31399;51.176;7.776;2023-09-08T09:29:34;3.20;;;2.58;;
45686;SDS011;31399;51.176;7.776;2023-09-08T09:32:11;3.72;;;2.75;;
45686;SDS011;31399;51.176;7.776;2023-09-08T09:34:48;4.07;;;2.42;;
45686;SDS011;31399;51.176;7.776;2023-09-08T09:37:16;4.65;;;2.60;;
45686;SDS011;31399;51.176;7.776;2023-09-08T09:39:45;4.20;;;2.90;;
45686;SDS011;31399;51.176;7.776;2023-09-08T09:42:15;3.20;;;2.90;;
45686;SDS011;31399;51.176;7.776;2023-09-08T09:44:42;3.17;;;2.47;;
45686;SDS011;31399;51.176;7.776;2023-09-08T09:47:09;4.53;;;3.00;;
45686;SDS011;31399;51.176;7.776;2023-09-08T09:49:45;2.97;;;2.50;;
45686;SDS011;31399;51.176;7.776;2023-09-08T09:52:13;3.45;;;2.45;;
45686;SDS011;31399;51.176;7.776;2023-09-08T09:54:41;2.60;;;2.40;;
45686;SDS011;31399;51.176;7.776;2023-09-08T09:57:15;3.83;;;2.30;;
45686;SDS011;31399;51.176;7.776;2023-09-08T09:59:42;5.05;;;2.50;;
45686;SDS011;31399;51.176;7.776;2023-09-08T10:02:13;3.03;;;2.72;;
45686;SDS011;31399;51.176;7.776;2023-09-08T10:04:41;3.88;;;2.80;;
45686;SDS011;31399;51.176;7.776;2023-09-08T10:07:08;3.95;;;2.55;;
45686;SDS011;31399;51.176;7.776;2023-09-08T10:09:36;3.83;;;2.15;;
45686;SDS011;31399;51.176;7.776;2023-09-08T10:12:03;3.55;;;2.53;;
45686;SDS011;31399;51.176;7.776;2023-09-08T10:14:38;2.90;;;2.60;;
45686;SDS011;31399;51.176;7.776;2023-09-08T10:17:08;5.18;;;2.70;;
45686;SDS011;31399;51.176;7.776;2023-09-08T10:19:38;2.85;;;2.47;;
45686;SDS011;31399;51.176;7.776;2023-09-08T10:22:11;4.55;;;2.80;;
45686;SDS011;31399;51.176;7.776;2023-09-08T10:24:39;7.20;;;2.13;;
45686;SDS011;31399;51.176;7.776;2023-09-08T10:27:07;4.32;;;2.35;;
45686;SDS011;31399;51.176;7.776;2023-09-08T10:29:36;4.25;;;2.10;;
45686;SDS011;31399;51.176;7.776;2023-09-08T10:32:03;3.63;;;2.78;;
45686;SDS011;31399;51.176;7.776;2023-09-08T10:34:32;3.65;;;2.60;;
45686;SDS011;31399;51.176;7.776;2023-09-08T10:37:00;2.85;;;2.55;;
45686;SDS011;31399;51.176;7.776;2023-09-08T10:39:27;5.60;;;2.50;;
45686;SDS011;31399;51.176;7.776;2023-09-08T10:44:43;4.55;;;2.75;;
45686;SDS011;31399;51.176;7.776;2023-09-08T10:47:10;3.42;;;2.03;;
45686;SDS011;31399;51.176;7.776;2023-09-08T10:49:38;3.25;;;2.33;;
45686;SDS011;31399;51.176;7.776;2023-09-08T10:52:08;4.25;;;2.60;;
45686;SDS011;31399;51.176;7.776;2023-09-08T10:54:42;3.90;;;2.13;;
45686;SDS011;31399;51.176;7.776;2023-09-08T10:57:22;3.40;;;2.05;;
45686;SDS011;31399;51.176;7.776;2023-09-08T10:59:54;3.15;;;2.40;;
45686;SDS011;31399;51.176;7.776;2023-09-08T11:02:39;2.92;;;2.63;;
45686;SDS011;31399;51.176;7.776;2023-09-08T11:05:08;2.63;;;2.05;;
45686;SDS011;31399;51.176;7.776;2023-09-08T11:07:36;3.63;;;2.75;;
45686;SDS011;31399;51.176;7.776;2023-09-08T11:10:04;3.05;;;2.08;;
45686;SDS011;31399;51.176;7.776;2023-09-08T11:12:32;4.70;;;2.30;;
45686;SDS011;31399;51.176;7.776;2023-09-08T11:15:02;2.83;;;2.15;;
45686;SDS011;31399;51.176;7.776;2023-09-08T11:17:35;3.72;;;2.30;;
45686;SDS011;31399;51.176;7.776;2023-09-08T11:20:06;4.72;;;2.70;;
45686;SDS011;31399;51.176;7.776;2023-09-08T11:22:36;3.17;;;2.23;;
45686;SDS011;31399;51.176;7.776;2023-09-08T11:25:04;4.78;;;2.17;;
45686;SDS011;31399;51.176;7.776;2023-09-08T11:27:33;5.13;;;2.43;;
45686;SDS011;31399;51.176;7.776;2023-09-08T11:30:00;3.63;;;2.35;;
45686;SDS011;31399;51.176;7.776;2023-09-08T11:32:33;2.83;;;2.53;;
45686;SDS011;31399;51.176;7.776;2023-09-08T11:35:04;3.85;;;2.28;;
45686;SDS011;31399;51.176;7.776;2023-09-08T11:37:34;2.75;;;2.22;;
45686;SDS011;31399;51.176;7.776;2023-09-08T11:40:11;3.63;;;2.30;;
45686;SDS011;31399;51.176;7.776;2023-09-08T11:42:43;5.55;;;2.65;;
45686;SDS011;31399;51.176;7.776;2023-09-08T11:45:12;3.78;;;2.40;;
45686;SDS011;31399;51.176;7.776;2023-09-08T11:47:40;7.13;;;2.55;;
45686;SDS011;31399;51.176;7.776;2023-09-08T11:50:11;4.43;;;2.20;;
45686;SDS011;31399;51.176;7.776;2023-09-08T11:52:45;2.63;;;2.38;;
45686;SDS011;31399;51.176;7.776;2023-09-08T11:55:13;4.93;;;2.50;;
45686;SDS011;31399;51.176;7.776;2023-09-08T11:57:40;2.90;;;2.35;;
45686;SDS011;31399;51.176;7.776;2023-09-08T12:00:08;2.72;;;2.00;;
45686;SDS011;31399;51.176;7.776;2023-09-08T12:02:37;2.83;;;2.13;;
45686;SDS011;31399;51.176;7.776;2023-09-08T12:05:04;2.58;;;2.20;;
45686;SDS011;31399;51.176;7.776;2023-09-08T12:07:31;2.97;;;2.28;;
45686;SDS011;31399;51.176;7.776;2023-09-08T12:09:58;4.70;;;2.30;;
45686;SDS011;31399;51.176;7.776;2023-09-08T12:12:25;4.45;;;2.50;;
45686;SDS011;31399;51.176;7.776;2023-09-08T12:14:53;8.18;;;2.65;;
45686;SDS011;31399;51.176;7.776;2023-09-08T12:17:20;3.40;;;2.00;;
45686;SDS011;31399;51.176;7.776;2023-09-08T12:19:51;3.88;;;2.70;;
45686;SDS011;31399;51.176;7.776;2023-09-08T12:22:18;4.03;;;2.40;;
45686;SDS011;31399;51.176;7.776;2023-09-08T12:27:23;4.15;;;2.17;;
45686;SDS011;31399;51.176;7.776;2023-09-08T12:29:56;5.65;;;2.38;;
45686;SDS011;31399;51.176;7.776;2023-09-08T12:32:31;2.42;;;2.22;;
45686;SDS011;31399;51.176;7.776;2023-09-08T12:34:58;5.45;;;2.42;;
45686;SDS011;31399;51.176;7.776;2023-09-08T12:37:27;2.65;;;2.45;;
45686;SDS011;31399;51.176;7.776;2023-09-08T12:39:55;3.85;;;2.30;;
45686;SDS011;31399;51.176;7.776;2023-09-08T12:42:22;4.13;;;2.40;;
45686;SDS011;31399;51.176;7.776;2023-09-08T12:44:52;2.60;;;2.40;;
45686;SDS011;31399;51.176;7.776;2023-09-08T12:47:19;3.83;;;2.83;;
45686;SDS011;31399;51.176;7.776;2023-09-08T12:49:46;3.60;;;2.60;;
45686;SDS011;31399;51.176;7.776;2023-09-08T12:52:13;4.60;;;2.10;;
45686;SDS011;31399;51.176;7.776;2023-09-08T12:54:39;2.80;;;2.53;;
45686;SDS011;31399;51.176;7.776;2023-09-08T12:57:06;3.08;;;2.80;;
45686;SDS011;31399;51.176;7.776;2023-09-08T12:59:32;2.80;;;2.60;;
45686;SDS011;31399;51.176;7.776;2023-09-08T13:01:59;3.67;;;2.70;;
45686;SDS011;31399;51.176;7.776;2023-09-08T13:04:25;4.20;;;2.70;;
45686;SDS011;31399;51.176;7.776;2023-09-08T13:06:52;4.47;;;2.53;;
45686;SDS011;31399;51.176;7.776;2023-09-08T13:09:19;4.82;;;2.55;;
45686;SDS011;31399;51.176;7.776;2023-09-08T13:11:46;2.80;;;2.60;;
45686;SDS011;31399;51.176;7.776;2023-09-08T13:14:13;4.35;;;2.60;;
45686;SDS011;31399;51.176;7.776;2023-09-08T13:16:40;2.70;;;2.50;;
45686;SDS011;31399;51.176;7.776;2023-09-08T13:19:06;4.50;;;2.78;;
45686;SDS011;31399;51.176;7.776;2023-09-08T13:21:33;5.18;;;3.20;;
45686;SDS011;31399;51.176;7.776;2023-09-08T13:24:00;2.80;;;2.60;;
45686;SDS011;31399;51.176;7.776;2023-09-08T13:26:26;2.60;;;2.38;;
45686;SDS011;31399;51.176;7.776;2023-09-08T13:28:53;6.95;;;2.83;;
45686;SDS011;31399;51.176;7.776;2023-09-08T13:31:19;5.03;;;2.90;;
45686;SDS011;31399;51.176;7.776;2023-09-08T13:33:46;5.88;;;2.70;;
45686;SDS011;31399;51.176;7.776;2023-09-08T13:36:13;2.97;;;2.38;;
45686;SDS011;31399;51.176;7.776;2023-09-08T13:38:40;4.05;;;2.72;;
45686;SDS011;31399;51.176;7.776;2023-09-08T13:41:06;3.78;;;2.70;;
45686;SDS011;31399;51.176;7.776;2023-09-08T13:43:33;3.00;;;2.70;;
45686;SDS011;31399;51.176;7.776;2023-09-08T13:45:59;4.82;;;3.05;;
45686;SDS011;31399;51.176;7.776;2023-09-08T13:48:26;7.20;;;3.42;;
45686;SDS011;31399;51.176;7.776;2023-09-08T13:50:54;3.17;;;2.88;;
45686;SDS011;31399;51.176;7.776;2023-09-08T13:53:23;3.80;;;3.00;;
45686;SDS011;31399;51.176;7.776;2023-09-08T13:56:08;4.45;;;2.80;;
45686;SDS011;31399;51.176;7.776;2023-09-08T13:58:35;5.72;;;2.80;;
45686;SDS011;31399;51.176;7.776;2023-09-08T14:01:14;3.33;;;2.92;;
45686;SDS011;31399;51.176;7.776;2023-09-08T14:03:43;3.90;;;2.72;;
45686;SDS011;31399;51.176;7.776;2023-09-08T14:06:29;5.90;;;3.03;;
45686;SDS011;31399;51.176;7.776;2023-09-08T14:09:05;4.50;;;2.65;;
45686;SDS011;31399;51.176;7.776;2023-09-08T14:11:34;5.05;;;2.70;;
45686;SDS011;31399;51.176;7.776;2023-09-08T14:14:21;3.33;;;2.75;;
45686;SDS011;31399;51.176;7.776;2023-09-08T14:16:47;3.00;;;2.60;;
45686;SDS011;31399;51.176;7.776;2023-09-08T14:19:14;4.95;;;3.38;;
45686;SDS011;31399;51.176;7.776;2023-09-08T14:21:41;4.22;;;3.30;;
45686;SDS011;31399;51.176;7.776;2023-09-08T14:24:07;4.85;;;2.70;;
45686;SDS011;31399;51.176;7.776;2023-09-08T14:26:34;7.05;;;3.35;;
45686;SDS011;31399;51.176;7.776;2023-09-08T14:29:01;4.28;;;3.05;;
45686;SDS011;31399;51.176;7.776;2023-09-08T14:31:28;3.90;;;3.28;;
45686;SDS011;31399;51.176;7.776;2023-09-08T14:33:55;5.95;;;3.08;;
45686;SDS011;31399;51.176;7.776;2023-09-08T14:36:22;4.82;;;2.50;;
45686;SDS011;31399;51.176;7.776;2023-09-08T14:38:49;3.15;;;2.38;;
45686;SDS011;31399;51.176;7.776;2023-09-08T14:41:15;3.88;;;3.47;;
45686;SDS011;31399;51.176;7.776;2023-09-08T14:43:42;5.60;;;3.13;;
45686;SDS011;31399;51.176;7.776;2023-09-08T14:46:09;6.95;;;2.85;;
45686;SDS011;31399;51.176;7.776;2023-09-08T14:48:35;6.10;;;2.63;;
45686;SDS011;31399;51.176;7.776;2023-09-08T14:51:02;3.90;;;3.00;;
45686;SDS011;31399;51.176;7.776;2023-09-08T14:53:30;3.92;;;2.50;;
45686;SDS011;31399;51.176;7.776;2023-09-08T14:55:58;4.40;;;2.83;;
45686;SDS011;31399;51.176;7.776;2023-09-08T14:58:25;5.32;;;2.70;;
45686;SDS011;31399;51.176;7.776;2023-09-08T15:00:52;3.35;;;2.35;;